Tunnerville, South Dakota
Current Conditions -  °F | °C
As of 1:13 PM on Thursday 18 Dec 2014 (Local Time) from KCNB Reporting Station
Overcast Overcast  
Wind Chill: -10°   Ceiling: 7000
Heat Index: -6°   Visibility: 7mi
Dew Point: -7°   Wind: 6mph
Humidity: 91%   Direction: 110°ESE
Pressure: 30.21"   Gusts: NA
Location:  44.7895°N, 96.7201°W
Report Text: KCNB 181913Z AUTO 11005KT 7SM OVC070 M06/M07 A3021 RMK AO2 T10591072
Loading
Personal Weather Stations






























Interactive Weather Map New forecast layout! Learn more

10-Day Weather Forecast

Advertisements
Track Severe Weather on mobile